Unlu-5 — TCON5 — position and weather

sailwx.info

Track history (hours):
 
Tides and Currents Weather Stations Pressure Air Temp Water Temp Dewpoint Dewpoint Depression Visibility Wind Speed Wind Dir Waves Ship Positions

Unlu-5

Last reported at 2016-Jul-28 23:25 UTC. Time now 2016-Jul-29 00:14 UTC.
Position N 35°52' W 005°60'.

Length 99 m; draft 6.3 m.

Type: Ship. MMSI: 271000854.

Date/timePositionNaut miles runAvg speedWind from/ knotsBaromVisibWave heightAir tempDewpointWater temp
2016-Jul-28 23:25N 35°52' W 005°60'7 6.9
2016-Jul-28 22:23N 35°56' W 005°52'14 7.8
2016-Jul-28 20:34N 35°58' W 005°35'7 7.2
2016-Jul-28 19:33N 36°00' W 005°26'7 6.8
2016-Jul-28 18:33N 36°03' W 005°18'196 7.9
2016-Jul-27 17:33N 36°20' W 001°16'33 8.0
2016-Jul-27 13:29N 36°27' W 000°36'41 7.9
2016-Jul-27 08:21N 36°31' E 000°14'6 7.6
2016-Jul-27 07:31N 36°33' E 000°22'7 7.6
2016-Jul-27 06:33N 36°34' E 000°31'8 7.6
2016-Jul-27 05:33N 36°37' E 000°40'8 7.9
2016-Jul-27 04:33N 36°38' E 000°50'8 7.9
2016-Jul-27 03:33N 36°39' E 000°59'41 8.2
2016-Jul-26 22:31N 36°43' E 001°50'33 7.9
2016-Jul-26 18:21N 36°49' E 002°31'15 8.1
2016-Jul-26 16:33N 36°52' E 002°49'8 8.2
2016-Jul-26 15:33N 36°54' E 002°59'8 8.0
2016-Jul-26 14:34N 36°57' E 003°08'8 8.1
2016-Jul-26 13:33N 36°59' E 003°18'8 8.1
2016-Jul-26 12:33N 37°01' E 003°28'8 8.0
2016-Jul-26 11:32N 37°03' E 003°38'8 8.3
2016-Jul-26 10:33N 37°02' E 003°48'10 8.3
2016-Jul-26 09:21N 37°02' E 004°00'7 8.6
2016-Jul-26 08:33N 37°01' E 004°09'17 8.2
2016-Jul-26 06:31N 37°02' E 004°30'  
2016-Jul-24 02:03N 37°13' E 012°06'19 7.2
2016-Jul-23 23:22N 37°07' E 012°29'10 7.5
2016-Jul-23 22:05N 37°05' E 012°41'6 7.7
2016-Jul-23 21:22N 37°04' E 012°48'8 7.9
2016-Jul-23 20:20N 37°02' E 012°58'8 8.0
2016-Jul-23 19:19N 37°00' E 013°07'6 7.7
2016-Jul-23 18:34N 36°59' E 013°15'7 7.3
2016-Jul-23 17:34N 36°56' E 013°23'7 7.1
2016-Jul-23 16:34N 36°53' E 013°31'7 6.9
2016-Jul-23 15:34N 36°51' E 013°40'7 6.8
2016-Jul-23 14:31N 36°49' E 013°48'7 6.7
2016-Jul-23 13:33N 36°47' E 013°56'7 6.7
2016-Jul-23 12:34N 36°45' E 014°04'7 7.4
2016-Jul-23 11:34N 36°43' E 014°12'8 8.1
2016-Jul-23 10:34N 36°41' E 014°22'8 8.1
2016-Jul-23 09:34N 36°39' E 014°32'8 8.1
2016-Jul-23 08:34N 36°37' E 014°42'8 7.9
2016-Jul-23 07:33N 36°36' E 014°52'8 7.8
2016-Jul-23 06:33N 36°36' E 015°01'  
2016-Jul-20 21:10N 37°20' E 023°54'14 8.5
2016-Jul-20 19:31N 37°32' E 024°03'21 9.2
2016-Jul-20 17:15N 37°50' E 024°17'7 8.6
2016-Jul-20 16:27N 37°55' E 024°23'4 0.1
2016-Jul-19 10:07N 37°57' E 024°27'  
Track history (hours):
 
Tides and Currents Weather Stations Pressure Air Temp Water Temp Dewpoint Dewpoint Depression Visibility Wind Speed Wind Dir Waves Ship Positions

Unlu-5

Last reported at 2016-Jul-28 23:25 UTC. Time now 2016-Jul-29 00:14 UTC.
Position N 35°52' W 005°60'.

Length 99 m; draft 6.3 m.

Type: Ship. MMSI: 271000854.

Date/timePositionNaut miles runAvg speedWind from/ knotsBaromVisibWave heightAir tempDewpointWater temp
2016-Jul-28 23:25N 35°52' W 005°60'7 6.9
2016-Jul-28 22:23N 35°56' W 005°52'14 7.8
2016-Jul-28 20:34N 35°58' W 005°35'7 7.2
2016-Jul-28 19:33N 36°00' W 005°26'7 6.8
2016-Jul-28 18:33N 36°03' W 005°18'196 7.9
2016-Jul-27 17:33N 36°20' W 001°16'33 8.0
2016-Jul-27 13:29N 36°27' W 000°36'41 7.9
2016-Jul-27 08:21N 36°31' E 000°14'6 7.6
2016-Jul-27 07:31N 36°33' E 000°22'7 7.6
2016-Jul-27 06:33N 36°34' E 000°31'8 7.6
2016-Jul-27 05:33N 36°37' E 000°40'8 7.9
2016-Jul-27 04:33N 36°38' E 000°50'8 7.9
2016-Jul-27 03:33N 36°39' E 000°59'41 8.2
2016-Jul-26 22:31N 36°43' E 001°50'33 7.9
2016-Jul-26 18:21N 36°49' E 002°31'15 8.1
2016-Jul-26 16:33N 36°52' E 002°49'8 8.2
2016-Jul-26 15:33N 36°54' E 002°59'8 8.0
2016-Jul-26 14:34N 36°57' E 003°08'8 8.1
2016-Jul-26 13:33N 36°59' E 003°18'8 8.1
2016-Jul-26 12:33N 37°01' E 003°28'8 8.0
2016-Jul-26 11:32N 37°03' E 003°38'8 8.3
2016-Jul-26 10:33N 37°02' E 003°48'10 8.3
2016-Jul-26 09:21N 37°02' E 004°00'7 8.6
2016-Jul-26 08:33N 37°01' E 004°09'17 8.2
2016-Jul-26 06:31N 37°02' E 004°30'  
2016-Jul-24 02:03N 37°13' E 012°06'19 7.2
2016-Jul-23 23:22N 37°07' E 012°29'10 7.5
2016-Jul-23 22:05N 37°05' E 012°41'6 7.7
2016-Jul-23 21:22N 37°04' E 012°48'8 7.9
2016-Jul-23 20:20N 37°02' E 012°58'8 8.0
2016-Jul-23 19:19N 37°00' E 013°07'6 7.7
2016-Jul-23 18:34N 36°59' E 013°15'7 7.3
2016-Jul-23 17:34N 36°56' E 013°23'7 7.1
2016-Jul-23 16:34N 36°53' E 013°31'7 6.9
2016-Jul-23 15:34N 36°51' E 013°40'7 6.8
2016-Jul-23 14:31N 36°49' E 013°48'7 6.7
2016-Jul-23 13:33N 36°47' E 013°56'7 6.7
2016-Jul-23 12:34N 36°45' E 014°04'7 7.4
2016-Jul-23 11:34N 36°43' E 014°12'8 8.1
2016-Jul-23 10:34N 36°41' E 014°22'8 8.1
2016-Jul-23 09:34N 36°39' E 014°32'8 8.1
2016-Jul-23 08:34N 36°37' E 014°42'8 7.9
2016-Jul-23 07:33N 36°36' E 014°52'8 7.8
2016-Jul-23 06:33N 36°36' E 015°01'  
2016-Jul-20 21:10N 37°20' E 023°54'14 8.5
2016-Jul-20 19:31N 37°32' E 024°03'21 9.2
2016-Jul-20 17:15N 37°50' E 024°17'7 8.6
2016-Jul-20 16:27N 37°55' E 024°23'4 0.1
2016-Jul-19 10:07N 37°57' E 024°27'  

Dump ship's entire track history